Time;durP1;ratioP1;P1;durP2;ratioP2;P2;SDS_P1;SDS_P2;PMS_P1;PMS_P2;Temp;Humidity;BMP_temperature;BMP_pressure;BME280_temperature;BME280_humidity;BME280_pressure;Samples;Min_cycle;Max_cycle;Signal;HPM_P1;HPM_P2
2021/03/19 00:02:21;;;;;;;;;;;;;;;8.78;36.75;101813.25;4843314;29;20339;-75
2021/03/19 00:04:51;;;;;;;;;;;;;;;8.75;36.88;101813.28;4842932;29;19935;-76
2021/03/19 00:07:23;;;;;;;;;;;;;;;8.74;36.57;101813.28;4842789;29;19929;-75
2021/03/19 00:09:53;;;;;;;;;;;;;;;8.73;36.72;101815.06;4842610;29;20028;-75
2021/03/19 00:12:23;;;;;;;;;;;;;;;8.68;36.52;101824.75;4842648;29;20328;-75
2021/03/19 00:14:53;;;;;;;;;;;;;;;8.65;36.99;101837.91;4826303;29;20445;-75
2021/03/19 00:17:23;;;;;;;;;;;;;;;8.62;36.30;101838.81;4842891;29;20379;-75
2021/03/19 00:19:54;;;;;;;;;;;;;;;8.60;36.56;101832.66;4842996;29;19984;-75
2021/03/19 00:22:23;;;;;;;;;;;;;;;8.58;37.16;101844.09;4842229;29;19932;-75
2021/03/19 00:24:53;;;;;;;;;;;;;;;8.56;36.94;101840.56;4842222;29;20379;-75
2021/03/19 00:27:22;;;;;;;;;;;;;;;8.54;36.93;101845.84;4842343;29;20382;-75
2021/03/19 00:29:52;;;;;;;;;;;;;;;8.51;37.11;101845.88;4841966;29;19929;-76
2021/03/19 00:32:23;;;;;;;;;;;;;;;8.50;37.06;101853.75;4842628;29;20019;-75
2021/03/19 00:34:52;;;;;;;;;;;;;;;8.47;37.41;101862.59;4842439;29;19929;-75
2021/03/19 00:37:21;;;;;;;;;;;;;;;8.44;37.25;101859.91;4841922;29;19935;-75
2021/03/19 00:43:49;;;;;;;;;;;;;;;8.42;37.19;101870.44;4842632;29;20401;-75
2021/03/19 00:46:19;;;;;;;;;;;;;;;8.40;37.73;101868.69;4842212;29;19939;-75
2021/03/19 00:48:50;;;;;;;;;;;;;;;8.38;37.45;101875.72;4842142;29;19932;-75
2021/03/19 00:51:20;;;;;;;;;;;;;;;8.36;37.39;101877.50;4825315;29;20449;-75
2021/03/19 00:53:51;;;;;;;;;;;;;;;8.33;37.96;101875.72;4841371;29;19928;-76
2021/03/19 00:56:20;;;;;;;;;;;;;;;8.32;37.91;101884.50;4842237;29;19932;-75
2021/03/19 00:58:49;;;;;;;;;;;;;;;8.32;37.81;101884.50;4841708;29;20486;-75
2021/03/19 01:01:19;;;;;;;;;;;;;;;8.29;37.88;101876.63;4825670;29;19940;-75
2021/03/19 01:07:51;;;;;;;;;;;;;;;8.24;38.00;101873.97;4842184;29;20293;-76
2021/03/19 01:10:24;;;;;;;;;;;;;;;8.23;38.14;101866.94;4841885;29;20391;-75
2021/03/19 01:12:53;;;;;;;;;;;;;;;8.21;38.33;101868.69;4841892;29;20456;-75
2021/03/19 01:15:23;;;;;;;;;;;;;;;8.21;38.35;101878.34;4841620;29;19932;-75
2021/03/19 01:17:53;;;;;;;;;;;;;;;8.19;38.73;101873.06;4841643;29;20394;-75
2021/03/19 01:20:24;;;;;;;;;;;;;;;8.17;38.39;101877.50;4841466;29;20055;-75
2021/03/19 01:22:55;;;;;;;;;;;;;;;8.16;38.68;101869.59;4841599;29;20394;-76
2021/03/19 01:25:28;;;;;;;;;;;;;;;8.14;38.38;101880.09;4841605;29;20242;-75
2021/03/19 01:27:58;;;;;;;;;;;;;;;8.11;39.02;101888.88;4841821;29;20359;-75
2021/03/19 01:30:29;;;;;;;;;;;;;;;8.09;39.17;101895.03;4841119;29;20413;-75
2021/03/19 01:32:59;;;;;;;;;;;;;;;8.07;38.87;101897.66;4841611;29;19935;-75
2021/03/19 01:35:31;;;;;;;;;;;;;;;8.05;39.18;101888.91;4842017;29;20003;-75
2021/03/19 01:38:01;;;;;;;;;;;;;;;8.03;39.13;101906.44;4841637;29;19936;-75
2021/03/19 01:40:34;;;;;;;;;;;;;;;8.02;39.12;101912.59;4841360;29;20454;-75
2021/03/19 01:43:06;;;;;;;;;;;;;;;8.02;39.30;101928.41;4841424;29;19967;-75
2021/03/19 01:45:49;;;;;;;;;;;;;;;7.98;39.62;101934.56;4841042;29;19928;-75
2021/03/19 01:55:44;;;;;;;;;;;;;;;7.90;39.60;101941.56;4841413;29;20451;-75
2021/03/19 01:58:47;;;;;;;;;;;;;;;7.87;39.85;101952.97;4841645;29;19929;-75
2021/03/19 02:02:23;;;;;;;;;;;;;;;7.81;40.48;101955.56;4841642;29;19935;-75
2021/03/19 02:05:34;;;;;;;;;;;;;;;7.79;40.39;101954.72;4843411;29;20013;-75
2021/03/19 02:11:32;;;;;;;;;;;;;;;7.75;40.62;101958.22;4844994;29;19929;-75
2021/03/19 02:18:02;;;;;;;;;;;;;;;7.68;40.65;101959.06;4845089;29;20297;-75
2021/03/19 02:20:50;;;;;;;;;;;;;;;7.65;40.75;101957.28;4845298;29;19929;-75
2021/03/19 02:23:49;;;;;;;;;;;;;;;7.63;40.97;101964.31;4844990;29;20418;-75
2021/03/19 02:26:38;;;;;;;;;;;;;;;7.60;41.32;101966.91;4844744;29;20434;-75
2021/03/19 02:29:25;;;;;;;;;;;;;;;7.57;41.31;101980.06;4844404;29;19981;-75
2021/03/19 02:32:00;;;;;;;;;;;;;;;7.54;41.26;101986.22;4844917;29;20390;-75
2021/03/19 02:34:32;;;;;;;;;;;;;;;7.52;41.15;101974.78;4844669;29;19936;-75
2021/03/19 02:37:02;;;;;;;;;;;;;;;7.47;41.30;101976.50;4844814;29;19928;-75
2021/03/19 02:39:33;;;;;;;;;;;;;;;7.46;41.38;101974.75;4844249;29;20453;-75
2021/03/19 02:42:03;;;;;;;;;;;;;;;7.43;41.44;101966.81;4844251;29;19928;-75
2021/03/19 02:44:34;;;;;;;;;;;;;;;7.41;41.40;101972.09;4844059;29;19929;-75
2021/03/19 02:47:05;;;;;;;;;;;;;;;7.40;41.16;101975.59;4844476;29;20408;-75
2021/03/19 02:49:37;;;;;;;;;;;;;;;7.38;41.33;101981.72;4844814;29;20366;-75
2021/03/19 02:52:20;;;;;;;;;;;;;;;7.37;41.67;101988.75;4844382;29;19963;-75
2021/03/19 02:58:48;;;;;;;;;;;;;;;7.36;41.48;101983.47;4844674;29;19947;-75
2021/03/19 03:01:18;;;;;;;;;;;;;;;7.32;41.57;101993.09;4844204;29;19977;-75
2021/03/19 03:03:51;;;;;;;;;;;;;;;7.31;41.75;101996.59;4844092;29;20278;-75
2021/03/19 03:06:21;;;;;;;;;;;;;;;7.29;41.93;102009.75;4844027;29;20275;-75
2021/03/19 03:08:51;;;;;;;;;;;;;;;7.27;41.89;102016.75;4843404;29;20378;-75
2021/03/19 03:11:21;;;;;;;;;;;;;;;7.25;42.02;102026.41;4843864;29;20358;-75
2021/03/19 03:13:50;;;;;;;;;;;;;;;7.25;42.11;102034.31;4843918;29;19933;-75
2021/03/19 03:16:19;;;;;;;;;;;;;;;7.22;42.24;102039.56;4842765;29;19952;-75
2021/03/19 03:18:50;;;;;;;;;;;;;;;7.22;42.33;102036.03;4844042;29;19953;-75
2021/03/19 03:21:20;;;;;;;;;;;;;;;7.20;41.94;102035.16;4843435;29;20409;-75
2021/03/19 03:30:40;;;;;;;;;;;;;;;7.13;42.51;102048.25;4843310;29;20394;-75
2021/03/19 03:33:10;;;;;;;;;;;;;;;7.11;42.09;102049.97;4843720;29;20473;-75
2021/03/19 03:35:40;;;;;;;;;;;;;;;7.09;42.31;102061.38;4843171;29;19929;-75
2021/03/19 03:38:14;;;;;;;;;;;;;;;7.09;42.44;102058.72;4843114;29;20354;-75
2021/03/19 03:44:24;;;;;;;;;;;;;;;7.01;42.64;102074.44;4842851;29;20077;-75
2021/03/19 03:46:55;;;;;;;;;;;;;;;7.00;42.52;102080.59;4843643;29;20404;-75
2021/03/19 03:49:25;;;;;;;;;;;;;;;6.96;42.74;102077.06;4843128;29;19944;-75
2021/03/19 03:51:55;;;;;;;;;;;;;;;6.95;42.59;102085.81;4842767;29;19959;-75
2021/03/19 03:54:27;;;;;;;;;;;;;;;6.93;42.84;102084.03;4843156;29;20355;-75
2021/03/19 03:56:58;;;;;;;;;;;;;;;6.91;42.66;102091.91;4843166;29;20378;-75
2021/03/19 03:59:28;;;;;;;;;;;;;;;6.87;43.08;102087.50;4842704;29;20394;-75
2021/03/19 04:01:57;;;;;;;;;;;;;;;6.85;42.72;102088.34;4843323;29;20289;-75
2021/03/19 04:08:10;;;;;;;;;;;;;;;6.77;42.92;102096.16;4843157;29;19940;-75
2021/03/19 04:10:41;;;;;;;;;;;;;;;6.75;42.89;102084.72;4843062;29;20290;-75
2021/03/19 04:13:12;;;;;;;;;;;;;;;6.71;43.00;102101.34;4842879;29;20398;-75
2021/03/19 04:15:43;;;;;;;;;;;;;;;6.68;43.07;102102.19;4842590;29;19935;-75
2021/03/19 04:18:13;;;;;;;;;;;;;;;6.67;43.29;102108.31;4842428;29;20394;-75
2021/03/19 04:21:02;;;;;;;;;;;;;;;6.65;43.01;102107.44;4842508;29;20356;-75
2021/03/19 04:23:56;;;;;;;;;;;;;;;6.63;42.98;102110.06;4842948;29;20358;-74
2021/03/19 04:26:30;;;;;;;;;;;;;;;6.61;42.96;102109.16;4842789;29;19928;-75
2021/03/19 04:29:00;;;;;;;;;;;;;;;6.58;43.03;102124.00;4842054;29;20455;-75
2021/03/19 04:31:30;;;;;;;;;;;;;;;6.56;43.02;102117.88;4842247;29;20382;-75
2021/03/19 04:44:23;;;;;;;;;;;;;;;6.41;43.22;102121.19;4841661;29;19993;-75
2021/03/19 04:46:52;;;;;;;;;;;;;;;6.37;43.21;102127.25;4841901;29;20041;-75
2021/03/19 04:49:21;;;;;;;;;;;;;;;6.33;43.57;102129.00;4841858;29;19993;-75
2021/03/19 04:51:51;;;;;;;;;;;;;;;6.28;43.34;102138.56;4842280;29;20393;-75
2021/03/19 04:54:20;;;;;;;;;;;;;;;6.27;43.53;102136.78;4842134;29;19967;-75
2021/03/19 04:56:50;;;;;;;;;;;;;;;6.25;43.52;102151.66;4842001;29;20347;-75
2021/03/19 04:59:21;;;;;;;;;;;;;;;6.21;43.44;102156.00;4841540;29;20405;-74
2021/03/19 05:01:53;;;;;;;;;;;;;;;6.17;43.44;102167.31;4841556;29;19977;-75
2021/03/19 05:04:23;;;;;;;;;;;;;;;6.12;43.32;102161.09;4841902;29;20430;-75
2021/03/19 05:06:53;;;;;;;;;;;;;;;6.11;43.71;102164.63;4841932;29;19929;-75
2021/03/19 05:09:23;;;;;;;;;;;;;;;6.08;43.50;102175.97;4841848;29;20398;-75
2021/03/19 05:11:53;;;;;;;;;;;;;;;6.06;43.73;102184.69;4825426;29;19986;-74
2021/03/19 05:14:23;;;;;;;;;;;;;;;6.05;43.81;102180.28;4840961;29;20441;-75
2021/03/19 05:16:55;;;;;;;;;;;;;;;6.03;43.57;102190.78;4841586;29;19929;-75
2021/03/19 05:19:25;;;;;;;;;;;;;;;6.01;43.59;102187.25;4842022;29;20379;-75
2021/03/19 05:21:53;;;;;;;;;;;;;;;5.98;43.60;102197.72;4841696;29;19929;-75
2021/03/19 05:24:23;;;;;;;;;;;;;;;5.95;43.92;102201.13;4841763;29;20423;-75
2021/03/19 05:26:53;;;;;;;;;;;;;;;5.98;43.86;102205.59;4841506;29;20342;-75
2021/03/19 05:29:23;;;;;;;;;;;;;;;5.96;43.51;102191.50;4840703;29;20398;-75
2021/03/19 05:31:54;;;;;;;;;;;;;;;5.95;43.90;102198.50;4841825;29;20382;-74
2021/03/19 05:34:24;;;;;;;;;;;;;;;5.95;43.80;102193.25;4841962;29;20298;-74
2021/03/19 05:36:53;;;;;;;;;;;;;;;5.96;43.94;102207.25;4841552;29;19929;-74
2021/03/19 05:39:22;;;;;;;;;;;;;;;5.97;44.04;102220.41;4824509;29;20369;-75
2021/03/19 05:41:52;;;;;;;;;;;;;;;5.98;43.64;102224.84;4841101;29;19929;-74
2021/03/19 05:44:22;;;;;;;;;;;;;;;6.00;43.76;102230.13;4840265;29;19953;-74
2021/03/19 05:47:02;;;;;;;;;;;;;;;6.01;43.97;102234.53;4841696;29;20338;-74
2021/03/19 05:49:33;;;;;;;;;;;;;;;6.03;43.99;102238.06;4841360;29;19929;-74
2021/03/19 05:52:14;;;;;;;;;;;;;;;6.04;44.06;102239.84;4841861;29;20363;-74
2021/03/19 05:54:44;;;;;;;;;;;;;;;6.02;44.02;102240.69;4841402;29;20465;-75
2021/03/19 05:57:17;;;;;;;;;;;;;;;6.04;44.07;102249.44;4840895;29;20363;-78
2021/03/19 05:59:48;;;;;;;;;;;;;;;6.02;44.05;102240.69;4840826;29;20278;-77
2021/03/19 06:02:24;;;;;;;;;;;;;;;6.05;44.05;102256.47;4841718;29;20382;-74
2021/03/19 06:05:06;;;;;;;;;;;;;;;6.05;43.99;102252.09;4841318;29;20450;-75
2021/03/19 06:07:41;;;;;;;;;;;;;;;6.04;44.39;102265.22;4841326;29;19993;-76
2021/03/19 06:10:32;;;;;;;;;;;;;;;6.04;44.44;102265.22;4840900;29;19928;-75
2021/03/19 06:13:13;;;;;;;;;;;;;;;6.03;44.68;102266.97;4841155;29;19929;-76
2021/03/19 06:16:07;;;;;;;;;;;;;;;6.04;44.62;102267.84;4840745;29;20366;-75
2021/03/19 06:19:28;;;;;;;;;;;;;;;6.05;44.71;102269.63;4841718;29;19977;-76
2021/03/19 06:22:06;;;;;;;;;;;;;;;6.05;44.56;102269.63;4841371;29;19939;-75
2021/03/19 06:24:39;;;;;;;;;;;;;;;6.05;44.92;102269.63;4840651;29;19967;-74
2021/03/19 06:27:14;;;;;;;;;;;;;;;6.06;44.41;102281.91;4840929;29;20339;-74
2021/03/19 06:29:45;;;;;;;;;;;;;;;6.06;44.40;102285.41;4840926;29;20381;-75
2021/03/19 06:32:16;;;;;;;;;;;;;;;6.07;44.36;102297.69;4841408;29;20449;-75
2021/03/19 06:34:55;;;;;;;;;;;;;;;6.11;43.81;102302.13;4840742;29;20390;-75
2021/03/19 06:37:29;;;;;;;;;;;;;;;6.18;43.52;102300.47;4840684;29;19981;-75
2021/03/19 06:40:01;;;;;;;;;;;;;;;6.23;42.95;102309.31;4840492;29;20386;-74
2021/03/19 06:42:32;;;;;;;;;;;;;;;6.27;42.75;102319.00;4840872;29;19960;-74
2021/03/19 06:45:07;;;;;;;;;;;;;;;6.36;42.30;102323.53;4840768;29;20339;-74
2021/03/19 06:47:46;;;;;;;;;;;;;;;6.56;41.64;102320.31;4841146;29;19985;-74
2021/03/19 06:50:33;;;;;;;;;;;;;;;6.65;41.31;102321.31;4840783;29;19929;-73
2021/03/19 06:56:28;;;;;;;;;;;;;;;7.30;38.98;102332.69;4844504;29;20331;-72
2021/03/19 06:58:58;;;;;;;;;;;;;;;7.50;38.85;102332.03;5029678;24;19975;-73
2021/03/19 07:01:36;;;;;;;;;;;;;;;8.31;36.95;102341.53;4843843;29;20297;-73
2021/03/19 07:04:24;;;;;;;;;;;;;;;8.18;36.99;102343.22;4843902;29;19974;-74
2021/03/19 07:07:00;;;;;;;;;;;;;;;8.56;36.00;102342.63;4843713;29;20450;-74
2021/03/19 07:09:37;;;;;;;;;;;;;;;8.99;35.15;102344.63;4843502;29;20363;-75
2021/03/19 07:12:14;;;;;;;;;;;;;;;9.09;35.04;102351.72;4843935;29;19929;-74
2021/03/19 07:14:49;;;;;;;;;;;;;;;8.99;35.35;102349.91;4843488;29;19936;-74
2021/03/19 07:17:27;;;;;;;;;;;;;;;9.21;34.63;102348.25;4844141;29;19963;-75
2021/03/19 08:04:28;;;;;;;;;;;;;;;12.92;27.65;102417.69;4851789;24;20367;-76
2021/03/19 08:07:02;;;;;;;;;;;;;;;13.62;26.60;102417.78;4842633;29;19968;-75
2021/03/19 08:09:37;;;;;;;;;;;;;;;14.11;26.00;102409.06;4842785;29;20296;-75
2021/03/19 08:12:08;;;;;;;;;;;;;;;14.44;25.66;102413.88;4842782;29;19985;-76
2021/03/19 08:14:48;;;;;;;;;;;;;;;14.74;25.02;102409.81;4842400;29;19936;-75
2021/03/19 08:28:25;;;;;;;;;;;;;;;16.66;22.93;102421.59;4821997;29;20392;-76
2021/03/19 08:30:59;;;;;;;;;;;;;;;17.05;22.33;102417.94;4821550;29;19929;-76
2021/03/19 08:33:34;;;;;;;;;;;;;;;17.47;21.92;102428.28;4822180;29;19957;-76
2021/03/19 08:36:08;;;;;;;;;;;;;;;17.70;21.65;102427.63;4822416;29;20373;-76
2021/03/19 08:38:41;;;;;;;;;;;;;;;18.04;21.16;102426.59;4822372;29;19928;-80
2021/03/19 08:41:14;;;;;;;;;;;;;;;18.48;20.85;102428.69;4822334;29;20161;-76
2021/03/19 08:44:46;;;;;;;;;;;;;;;18.94;20.15;102430.72;4819931;29;19939;-76
2021/03/19 08:48:13;;;;;;;;;;;;;;;19.44;19.87;102419.94;4821555;29;19958;-76
2021/03/19 08:50:46;;;;;;;;;;;;;;;19.79;19.58;102422.16;4807012;29;19929;-76
2021/03/19 08:53:18;;;;;;;;;;;;;;;20.15;19.23;102427.03;4821925;29;19978;-77
2021/03/19 08:55:48;;;;;;;;;;;;;;;20.50;18.98;102441.66;4839334;29;19929;-77
2021/03/19 08:58:36;;;;;;;;;;;;;;;20.93;18.49;102435.38;4841596;29;20276;-77
2021/03/19 09:01:06;;;;;;;;;;;;;;;21.39;18.07;102444.03;4841126;29;20282;-77
2021/03/19 09:03:54;;;;;;;;;;;;;;;21.65;17.73;102434.78;4841917;29;20323;-77
2021/03/19 09:06:48;;;;;;;;;;;;;;;22.07;17.28;102432.78;4840613;29;19928;-78
2021/03/19 09:09:39;;;;;;;;;;;;;;;22.45;16.95;102448.88;4841926;29;19936;-78
2021/03/19 09:12:16;;;;;;;;;;;;;;;22.91;16.44;102459.09;4841742;29;20283;-78
2021/03/19 09:14:48;;;;;;;;;;;;;;;23.36;16.01;102468.44;4840714;29;20337;-78
2021/03/19 09:17:36;;;;;;;;;;;;;;;23.82;15.52;102472.22;4841592;29;19935;-78
2021/03/19 09:20:13;;;;;;;;;;;;;;;24.33;15.48;102453.97;4841974;29;20386;-79
2021/03/19 09:22:44;;;;;;;;;;;;;;;25.00;14.75;102460.84;4825726;29;20291;-79
2021/03/19 09:25:17;;;;;;;;;;;;;;;25.67;14.13;102473.84;4841803;29;20028;-79
2021/03/19 09:27:49;;;;;;;;;;;;;;;26.52;13.58;102463.69;4841301;29;20449;-78
2021/03/19 09:30:26;;;;;;;;;;;;;;;26.80;13.23;102472.69;4841014;29;20505;-79
2021/03/19 09:32:58;;;;;;;;;;;;;;;27.36;12.82;102473.34;4842163;29;20008;-79
2021/03/19 09:35:38;;;;;;;;;;;;;;;27.79;12.35;102471.09;4841710;29;19932;-78
2021/03/19 09:38:13;;;;;;;;;;;;;;;28.44;12.00;102465.41;4841668;29;20279;-80
2021/03/19 09:40:46;;;;;;;;;;;;;;;28.87;11.69;102470.28;4841245;29;19959;-76
2021/03/19 09:43:34;;;;;;;;;;;;;;;28.95;11.87;102464.22;4841057;29;20476;-79
2021/03/19 09:46:12;;;;;;;;;;;;;;;29.31;12.12;102470.44;4842948;29;19935;-81
2021/03/19 09:48:59;;;;;;;;;;;;;;;30.40;11.79;102473.34;4843523;29;19932;-80
2021/03/19 09:51:53;;;;;;;;;;;;;;;30.71;11.35;102471.59;4841658;29;19944;-80
2021/03/19 09:54:32;;;;;;;;;;;;;;;30.61;11.06;102473.41;4841335;29;20400;-82
2021/03/19 09:57:11;;;;;;;;;;;;;;;31.20;10.93;102481.97;4840870;29;20404;-80
2021/03/19 09:59:45;;;;;;;;;;;;;;;31.78;10.35;102486.81;4841374;29;20339;-80
2021/03/19 10:02:23;;;;;;;;;;;;;;;31.53;10.44;102478.09;4841269;29;20023;-80
2021/03/19 10:04:52;;;;;;;;;;;;;;;31.78;10.08;102492.28;4841694;29;20298;-80
2021/03/19 10:07:23;;;;;;;;;;;;;;;31.41;10.47;102495.59;4841197;29;20428;-80
2021/03/19 10:09:54;;;;;;;;;;;;;;;32.24;9.75;102495.41;4840979;29;20464;-80
2021/03/19 10:12:29;;;;;;;;;;;;;;;32.58;9.36;102476.69;4840897;29;19928;-80
2021/03/19 10:15:10;;;;;;;;;;;;;;;31.17;10.36;102488.59;4841049;29;19964;-80
2021/03/19 10:17:39;;;;;;;;;;;;;;;31.84;10.00;102488.16;4841561;29;20035;-81
2021/03/19 10:20:28;;;;;;;;;;;;;;;31.50;10.26;102489.31;4841243;29;20275;-80
2021/03/19 10:22:58;;;;;;;;;;;;;;;31.04;10.23;102491.53;4841011;29;20466;-79
2021/03/19 10:25:31;;;;;;;;;;;;;;;30.50;11.09;102493.44;4841676;29;19929;-79
2021/03/19 10:28:07;;;;;;;;;;;;;;;30.21;11.45;102488.56;4844597;29;19978;-80
2021/03/19 10:30:42;;;;;;;;;;;;;;;30.24;11.28;102491.03;4844422;29;20395;-83
2021/03/19 10:33:16;;;;;;;;;;;;;;;30.48;12.86;102489.97;4844767;29;20313;-74
2021/03/19 10:35:48;;;;;;;;;;;;;;;29.78;13.23;102489.38;4844656;29;20367;-76
2021/03/19 10:42:16;;;;;;;;;;;;;;;28.23;13.95;102492.41;4844624;29;20442;-73
2021/03/19 10:44:49;;;;;;;;;;;;;;;27.94;13.83;102496.28;4844405;29;19929;-74
2021/03/19 10:47:24;;;;;;;;;;;;;;;28.13;14.21;102503.97;4844411;29;19932;-73
2021/03/19 10:49:56;;;;;;;;;;;;;;;27.86;14.24;102506.00;4844435;29;19968;-73
2021/03/19 10:52:30;;;;;;;;;;;;;;;28.04;13.47;102496.50;4843673;29;20400;-78
2021/03/19 10:55:03;;;;;;;;;;;;;;;28.64;12.76;102489.25;4827749;29;20359;-78
2021/03/19 10:57:36;;;;;;;;;;;;;;;29.06;11.99;102499.63;4844033;29;20317;-79
2021/03/19 11:00:21;;;;;;;;;;;;;;;29.06;11.70;102493.31;4844002;29;20433;-78
2021/03/19 11:02:54;;;;;;;;;;;;;;;29.25;11.91;102495.47;4844113;29;19989;-78
2021/03/19 11:05:24;;;;;;;;;;;;;;;29.42;11.85;102500.44;4827027;29;20408;-78
2021/03/19 11:11:49;;;;;;;;;;;;;;;29.46;11.53;102498.34;4843991;29;19977;-78
2021/03/19 11:14:22;;;;;;;;;;;;;;;29.43;11.36;102502.19;4843737;29;20400;-78
2021/03/19 11:16:54;;;;;;;;;;;;;;;30.12;10.64;102494.78;4843384;29;20378;-78
2021/03/19 11:19:25;;;;;;;;;;;;;;;30.63;10.15;102487.78;4843198;29;20417;-78
2021/03/19 11:25:59;;;;;;;;;;;;;;;31.40;9.49;102491.13;4843632;29;19979;-78
2021/03/19 11:28:35;;;;;;;;;;;;;;;31.01;9.45;102491.78;4843492;29;20297;-78
2021/03/19 11:34:30;;;;;;;;;;;;;;;30.63;9.96;102499.56;4843170;29;20308;-78
2021/03/19 11:37:02;;;;;;;;;;;;;;;30.57;9.79;102494.63;4842412;29;20387;-78
2021/03/19 11:39:40;;;;;;;;;;;;;;;31.79;9.33;102488.56;4843362;29;19928;-79
2021/03/19 11:42:10;;;;;;;;;;;;;;;32.36;9.02;102486.06;4843280;29;19933;-78
2021/03/19 11:44:40;;;;;;;;;;;;;;;32.01;8.68;102494.81;4843408;29;19928;-78
2021/03/19 11:51:10;;;;;;;;;;;;;;;32.82;8.43;102485.47;4844048;29;19982;-78
2021/03/19 11:53:40;;;;;;;;;;;;;;;33.42;8.12;102475.06;4843131;29;19972;-78
2021/03/19 12:07:02;;;;;;;;;;;;;;;36.41;6.37;102476.94;4842031;29;19952;-79
2021/03/19 12:09:33;;;;;;;;;;;;;;;37.26;5.89;102469.19;4843108;29;19957;-80
2021/03/19 12:12:03;;;;;;;;;;;;;;;40.40;4.33;102461.34;4842866;29;19936;-79
2021/03/19 12:14:32;;;;;;;;;;;;;;;42.95;3.20;102463.91;4842753;29;19985;-80
2021/03/19 12:21:13;;;;;;;;;;;;;;;44.67;2.11;102480.91;4843496;29;19992;-79
2021/03/19 12:27:25;;;;;;;;;;;;;;;34.75;2.09;102478.13;4842697;29;19931;-80
2021/03/19 12:29:54;;;;;;;;;;;;;;;34.06;2.63;102483.34;4842148;29;20399;-79
2021/03/19 12:36:06;;;;;;;;;;;;;;;33.83;2.87;102469.22;4843004;29;19936;-79
2021/03/19 12:38:36;;;;;;;;;;;;;;;32.43;2.96;102484.47;4842843;29;20351;-82
2021/03/19 12:41:07;;;;;;;;;;;;;;;31.70;3.00;102483.94;4842622;29;19928;-84
2021/03/19 12:43:40;;;;;;;;;;;;;;;30.76;3.20;102490.34;4842851;29;20264;-84
2021/03/19 12:46:11;;;;;;;;;;;;;;;30.85;3.11;102491.38;4841924;29;20397;-82
2021/03/19 12:48:42;;;;;;;;;;;;;;;29.20;3.94;102486.78;4842535;29;20393;-83
2021/03/19 12:51:11;;;;;;;;;;;;;;;26.73;4.54;102486.81;4842430;29;19928;-81
2021/03/19 12:53:40;;;;;;;;;;;;;;;26.68;5.08;102489.78;4842076;29;19936;-84
2021/03/19 12:56:10;;;;;;;;;;;;;;;27.72;4.87;102486.13;4842455;29;20335;-82
2021/03/19 12:58:41;;;;;;;;;;;;;;;28.99;4.04;102482.91;4841889;29;20292;-82
2021/03/19 13:01:12;;;;;;;;;;;;;;;27.87;4.21;102475.09;4841775;29;20271;-81
2021/03/19 13:03:45;;;;;;;;;;;;;;;28.05;4.38;102471.06;4842771;29;19936;-88
2021/03/19 13:13:22;;;;;;;;;;;;;;;28.93;4.16;102477.97;4785677;30;20055;-79
2021/03/19 13:15:52;;;;;;;;;;;;;;;29.64;4.14;102471.41;4785167;30;20460;-76
2021/03/19 13:18:23;;;;;;;;;;;;;;;29.29;4.71;102478.75;4807063;29;20398;-74
2021/03/19 13:20:53;;;;;;;;;;;;;;;30.06;4.00;102479.81;4823815;29;19933;-77
2021/03/19 13:23:23;;;;;;;;;;;;;;;29.65;3.91;102473.16;4823633;29;19933;-77
2021/03/19 13:25:54;;;;;;;;;;;;;;;29.94;3.11;102468.06;4823453;29;19936;-77
2021/03/19 13:28:23;;;;;;;;;;;;;;;30.38;3.37;102465.28;4823306;29;19933;-77
2021/03/19 13:31:00;;;;;;;;;;;;;;;30.26;3.63;102463.63;4823681;29;20346;-76
2021/03/19 13:33:31;;;;;;;;;;;;;;;26.92;5.16;102470.09;4824150;29;20401;-76
2021/03/19 13:36:03;;;;;;;;;;;;;;;25.21;5.81;102463.19;4824014;29;19935;-76
2021/03/19 13:38:34;;;;;;;;;;;;;;;25.55;5.58;102466.50;4823657;29;20409;-76
2021/03/19 13:41:04;;;;;;;;;;;;;;;26.35;4.80;102464.84;4823155;29;19929;-76
2021/03/19 13:47:18;;;;;;;;;;;;;;;27.46;5.31;102469.00;4823612;29;19982;-77
2021/03/19 13:49:47;;;;;;;;;;;;;;;27.32;4.83;102467.25;4823795;29;19929;-77
2021/03/19 13:52:16;;;;;;;;;;;;;;;27.43;5.23;102480.97;4823329;29;19968;-77
2021/03/19 13:54:45;;;;;;;;;;;;;;;26.90;5.08;102481.06;4823234;29;20304;-79
2021/03/19 13:57:14;;;;;;;;;;;;;;;26.35;5.33;102474.84;4823069;29;20009;-76
2021/03/19 13:59:44;;;;;;;;;;;;;;;26.23;5.14;102473.81;4823357;29;19936;-77
2021/03/19 14:02:14;;;;;;;;;;;;;;;27.04;5.29;102473.78;4826401;29;20402;-77
2021/03/19 14:04:46;;;;;;;;;;;;;;;26.46;5.33;102472.28;4827064;29;20416;-77
2021/03/19 14:07:17;;;;;;;;;;;;;;;25.50;5.64;102474.91;4827013;29;20382;-76
2021/03/19 14:09:47;;;;;;;;;;;;;;;26.15;5.89;102484.31;4826435;29;20413;-76
2021/03/19 14:12:16;;;;;;;;;;;;;;;25.94;5.83;102482.00;4836736;29;20318;-76
2021/03/19 14:14:47;;;;;;;;;;;;;;;24.97;6.05;102480.84;4845253;29;19928;-77
2021/03/19 14:17:17;;;;;;;;;;;;;;;25.14;5.85;102476.25;4845424;29;19936;-77
2021/03/19 14:19:47;;;;;;;;;;;;;;;25.37;5.64;102471.25;4828665;29;20305;-77
2021/03/19 14:33:21;;;;;;;;;;;;;;;25.22;6.12;102465.81;4816541;29;19988;-79
2021/03/19 14:35:53;;;;;;;;;;;;;;;25.81;5.51;102468.38;4844656;29;19981;-78
2021/03/19 14:38:24;;;;;;;;;;;;;;;24.82;6.15;102477.25;4844346;29;19935;-78
2021/03/19 14:40:55;;;;;;;;;;;;;;;25.64;5.29;102477.59;4845820;29;19932;-76
2021/03/19 14:43:26;;;;;;;;;;;;;;;25.21;5.86;102472.19;4847034;29;20306;-83
2021/03/19 14:45:57;;;;;;;;;;;;;;;24.67;5.92;102468.22;4845394;29;20421;-71
2021/03/19 14:48:30;;;;;;;;;;;;;;;23.91;6.22;102478.97;4958027;24;20012;-70
2021/03/19 14:51:01;;;;;;;;;;;;;;;23.74;6.48;102469.94;4862594;29;20394;-71
2021/03/19 14:53:30;;;;;;;;;;;;;;;23.82;6.09;102465.00;4861258;29;20348;-72
2021/03/19 14:56:00;;;;;;;;;;;;;;;23.98;6.34;102467.72;4844447;29;20313;-70
2021/03/19 14:58:31;;;;;;;;;;;;;;;23.70;6.74;102471.97;4844330;29;20401;-70
2021/03/19 15:01:01;;;;;;;;;;;;;;;23.23;6.57;102472.72;4844157;29;19981;-70
2021/03/19 15:03:31;;;;;;;;;;;;;;;22.97;6.46;102472.28;4844118;29;19928;-70
2021/03/19 15:06:04;;;;;;;;;;;;;;;22.99;6.63;102470.34;4843717;29;19929;-70
2021/03/19 15:08:34;;;;;;;;;;;;;;;21.02;7.99;102470.81;4844360;29;20398;-70
2021/03/19 15:11:03;;;;;;;;;;;;;;;19.06;9.20;102470.53;4844151;29;19985;-70
2021/03/19 15:13:33;;;;;;;;;;;;;;;20.69;8.10;102465.06;4842866;29;19928;-70
2021/03/19 15:16:02;;;;;;;;;;;;;;;18.91;8.89;102469.25;4843848;29;20302;-70
2021/03/19 15:18:32;;;;;;;;;;;;;;;18.11;9.41;102469.22;4843383;29;19955;-71
2021/03/19 15:21:04;;;;;;;;;;;;;;;17.89;10.17;102461.84;4843640;29;19928;-71
2021/03/19 15:23:35;;;;;;;;;;;;;;;17.54;9.93;102467.31;4843851;29;20417;-70
2021/03/19 15:26:06;;;;;;;;;;;;;;;17.27;10.08;102466.34;4843986;29;19933;-68
2021/03/19 15:28:35;;;;;;;;;;;;;;;16.97;11.03;102465.34;4843668;29;20020;-81
2021/03/19 15:31:05;;;;;;;;;;;;;;;16.42;11.30;102465.84;4843419;29;20393;-82
2021/03/19 15:33:36;;;;;;;;;;;;;;;15.86;11.80;102460.94;4843369;29;20466;-79
2021/03/19 15:36:06;;;;;;;;;;;;;;;16.02;11.42;102466.78;4843664;29;20236;-79
2021/03/19 15:38:37;;;;;;;;;;;;;;;15.27;11.95;102467.44;4843713;29;20287;-78
2021/03/19 15:41:07;;;;;;;;;;;;;;;15.43;12.45;102468.91;4843626;29;20289;-77
2021/03/19 15:43:37;;;;;;;;;;;;;;;15.27;12.39;102465.69;4843673;29;20281;-78
2021/03/19 15:46:08;;;;;;;;;;;;;;;14.56;12.77;102469.59;4843113;29;20389;-76
2021/03/19 15:52:19;;;;;;;;;;;;;;;14.24;12.92;102478.09;4836745;29;20380;-77
2021/03/19 15:54:49;;;;;;;;;;;;;;;14.01;12.51;102476.66;4825348;29;19985;-76
2021/03/19 15:57:18;;;;;;;;;;;;;;;14.02;12.95;102481.06;4843519;29;20342;-78
2021/03/19 15:59:48;;;;;;;;;;;;;;;13.68;13.34;102476.19;4843256;29;19928;-81
2021/03/19 16:09:54;;;;;;;;;;;;;;;12.74;14.12;102466.59;4837074;29;20660;-72
2021/03/19 16:12:21;;;;;;;;;;;;;;;12.48;13.95;102472.97;4835769;29;19937;-74
2021/03/19 16:14:47;;;;;;;;;;;;;;;12.33;14.33;102474.00;4834823;29;19932;-72
2021/03/19 16:17:14;;;;;;;;;;;;;;;11.82;14.71;102471.63;4829590;29;19933;-72
2021/03/19 16:19:42;;;;;;;;;;;;;;;11.52;14.08;102483.22;4837024;29;20464;-70
2021/03/19 16:22:09;;;;;;;;;;;;;;;11.28;14.78;102490.34;4828422;29;19988;-71